Time;durP1;ratioP1;P1;durP2;ratioP2;P2;SDS_P1;SDS_P2;PMS_P1;PMS_P2;Temp;Humidity;BMP_temperature;BMP_pressure;BME280_temperature;BME280_humidity;BME280_pressure;Samples;Min_cycle;Max_cycle;Signal;HPM_P1;HPM_P2
2022/11/13 00:00:48;;;;;;;23.57;14.27;;;;;;;7.23;98.20;96624.78;5031843;28;20198;-80
2022/11/13 00:03:16;;;;;;;15.60;13.63;;;;;;;7.35;98.31;96625.47;5031843;28;20222;-81
2022/11/13 00:05:42;;;;;;;16.20;13.97;;;;;;;7.51;97.53;96625.78;5032230;28;20198;-80
2022/11/13 00:08:09;;;;;;;17.70;14.10;;;;;;;7.49;96.65;96618.25;5031009;28;20206;-81
2022/11/13 00:10:35;;;;;;;15.57;13.60;;;;;;;7.65;96.01;96619.47;5032438;28;20202;-81
2022/11/13 00:13:02;;;;;;;30.67;13.77;;;;;;;7.53;95.71;96617.00;5031242;28;20210;-81
2022/11/13 00:15:28;;;;;;;22.37;14.60;;;;;;;7.53;95.71;96608.53;5031877;28;20205;-80
2022/11/13 00:17:55;;;;;;;18.33;13.97;;;;;;;7.45;96.24;96610.94;5031726;28;20198;-80
2022/11/13 00:20:23;;;;;;;15.63;13.63;;;;;;;7.50;96.16;96614.75;5032368;28;20194;-82
2022/11/13 00:22:49;;;;;;;15.37;12.83;;;;;;;7.65;95.09;96601.53;5031415;28;20233;-79
2022/11/13 00:25:16;;;;;;;15.03;13.40;;;;;;;7.75;93.83;96599.78;5032164;28;20221;-81
2022/11/13 00:27:42;;;;;;;15.43;12.53;;;;;;;7.80;92.71;96598.44;5030919;28;20210;-81
2022/11/13 00:30:09;;;;;;;14.90;12.83;;;;;;;7.81;92.25;96591.56;5031527;28;20599;-80
2022/11/13 00:32:36;;;;;;;14.47;12.57;;;;;;;7.84;91.84;96589.53;5031667;28;20218;-81
2022/11/13 00:35:03;;;;;;;37.43;13.00;;;;;;;7.78;90.95;96584.94;5030862;28;20705;-81
2022/11/13 00:37:31;;;;;;;36.53;14.00;;;;;;;7.60;91.76;96587.38;5031671;28;20209;-79
2022/11/13 00:39:57;;;;;;;32.67;14.20;;;;;;;7.38;93.70;96582.47;5025598;28;20218;-81
2022/11/13 00:42:24;;;;;;;17.47;14.07;;;;;;;7.41;95.07;96587.34;5031486;28;20222;-80
2022/11/13 00:44:50;;;;;;;19.07;14.00;;;;;;;7.48;94.35;96579.94;5031086;28;20221;-81
2022/11/13 00:47:17;;;;;;;27.47;14.33;;;;;;;7.51;93.71;96575.34;5031145;28;20198;-80
2022/11/13 00:49:43;;;;;;;21.83;13.03;;;;;;;7.44;94.70;96570.88;5031044;28;20190;-80
2022/11/13 00:52:10;;;;;;;16.70;13.40;;;;;;;7.28;95.82;96569.66;5030904;28;20765;-80
2022/11/13 00:54:37;;;;;;;17.67;13.30;;;;;;;7.38;95.07;96574.78;5030199;28;20198;-81
2022/11/13 00:57:04;;;;;;;19.30;13.23;;;;;;;7.30;95.73;96573.84;5030778;28;20613;-81
2022/11/13 00:59:31;;;;;;;18.37;12.10;;;;;;;7.33;95.71;96569.25;5030610;28;20213;-81
2022/11/13 01:01:57;;;;;;;20.53;11.73;;;;;;;7.30;95.22;96566.16;5030134;28;20223;-81
2022/11/13 01:04:24;;;;;;;13.67;11.30;;;;;;;7.41;94.45;96563.47;5030846;28;20214;-80
2022/11/13 01:06:50;;;;;;;22.07;11.83;;;;;;;7.31;94.42;96562.66;5029935;28;20212;-80
2022/11/13 01:09:17;;;;;;;90.50;12.80;;;;;;;7.02;93.87;96565.94;5030839;28;20213;-82
2022/11/13 01:11:44;;;;;;;55.37;11.97;;;;;;;6.85;95.98;96554.56;5030285;28;20218;-81
2022/11/13 01:14:11;;;;;;;21.77;10.87;;;;;;;6.70;97.98;96550.75;5030086;28;20213;-84
2022/11/13 01:16:37;;;;;;;27.90;11.67;;;;;;;6.62;98.48;96552.31;5030663;28;20206;-80
2022/11/13 01:19:04;;;;;;;12.13;10.67;;;;;;;6.67;98.71;96543.31;5030193;28;20198;-80
2022/11/13 01:21:30;;;;;;;21.63;11.77;;;;;;;6.69;97.64;96541.44;5031210;28;20194;-82
2022/11/13 01:23:57;;;;;;;23.33;11.70;;;;;;;6.63;98.37;96547.06;5030358;28;20622;-81
2022/11/13 01:26:26;;;;;;;32.50;11.83;;;;;;;6.61;98.83;96537.91;5030279;28;20669;-82
2022/11/13 01:28:55;;;;;;;34.70;11.73;;;;;;;6.56;98.89;96538.28;5029967;28;20198;-80
2022/11/13 01:31:24;;;;;;;14.63;10.03;;;;;;;6.62;98.71;96537.78;5030180;28;20198;-81
2022/11/13 01:33:51;;;;;;;46.07;11.70;;;;;;;6.63;98.54;96530.91;5029670;28;20186;-81
2022/11/13 01:36:19;;;;;;;10.80;9.57;;;;;;;6.70;98.70;96529.47;5029869;28;20195;-81
2022/11/13 01:38:46;;;;;;;19.33;9.93;;;;;;;6.79;97.43;96521.81;5029684;28;20202;-80
2022/11/13 01:41:17;;;;;;;11.17;9.70;;;;;;;6.89;96.24;96517.53;5029654;28;20709;-81
2022/11/13 01:43:43;;;;;;;12.23;10.47;;;;;;;7.01;95.72;96517.41;5029214;28;20631;-80
2022/11/13 01:46:21;;;;;;;15.33;9.57;;;;;;;7.09;94.46;96504.78;5030075;28;20198;-81
2022/11/13 01:48:51;;;;;;;25.70;11.00;;;;;;;6.88;94.97;96513.34;5028992;28;20190;-82
2022/11/13 01:51:24;;;;;;;17.00;10.13;;;;;;;6.92;95.57;96501.13;5029821;28;20194;-81
2022/11/13 01:53:51;;;;;;;22.73;10.23;;;;;;;6.89;95.82;96506.50;5028779;28;20209;-80
2022/11/13 01:56:19;;;;;;;21.80;9.70;;;;;;;6.97;95.30;96505.81;5029318;28;20834;-81
2022/11/13 01:58:51;;;;;;;10.67;9.57;;;;;;;6.95;95.20;96498.25;5029887;28;20205;-81
2022/11/13 02:01:18;;;;;;;12.73;10.40;;;;;;;7.08;94.74;96496.28;5029001;28;20198;-81
2022/11/13 02:03:45;;;;;;;13.33;9.87;;;;;;;7.20;93.99;96497.78;5030021;28;20314;-81
2022/11/13 02:06:12;;;;;;;11.07;9.87;;;;;;;7.23;92.87;96504.38;5028694;28;20394;-81
2022/11/13 02:08:39;;;;;;;24.60;10.30;;;;;;;7.07;92.93;96494.66;5029803;28;20190;-81
2022/11/13 02:11:06;;;;;;;51.80;11.13;;;;;;;6.74;94.15;96492.41;5029398;28;20202;-80
2022/11/13 02:13:33;;;;;;;27.40;10.57;;;;;;;6.65;96.73;96490.66;5029933;28;20210;-82
2022/11/13 02:16:00;;;;;;;25.93;10.40;;;;;;;6.57;97.22;96496.41;5029248;28;20197;-81
2022/11/13 02:18:30;;;;;;;39.63;10.30;;;;;;;6.55;96.80;96493.97;5029510;28;20329;-80
2022/11/13 02:21:07;;;;;;;23.37;9.67;;;;;;;6.46;98.34;96481.97;5030218;28;20653;-81
2022/11/13 02:23:42;;;;;;;21.37;9.63;;;;;;;6.45;98.48;96489.78;5030003;28;20316;-80
2022/11/13 02:26:11;;;;;;;9.90;8.87;;;;;;;6.60;98.42;96478.25;5021064;28;20201;-80
2022/11/13 02:28:38;;;;;;;13.07;9.93;;;;;;;6.77;97.17;96482.72;5028849;28;20197;-80
2022/11/13 02:31:09;;;;;;;9.50;8.50;;;;;;;6.92;95.71;96476.31;5030750;28;20210;-81
2022/11/13 02:33:35;;;;;;;11.63;8.53;;;;;;;6.94;94.63;96476.97;5033225;28;20621;-80
2022/11/13 02:36:03;;;;;;;9.33;8.43;;;;;;;6.98;94.25;96474.16;5033426;28;20640;-82
2022/11/13 02:38:30;;;;;;;15.20;9.20;;;;;;;7.03;93.65;96472.00;5033498;28;20277;-81
2022/11/13 02:40:57;;;;;;;9.57;8.67;;;;;;;7.12;93.10;96463.56;5033346;28;20202;-81
2022/11/13 02:43:24;;;;;;;10.33;8.60;;;;;;;7.18;92.22;96461.25;5026885;28;20232;-81
2022/11/13 02:45:51;;;;;;;23.37;9.63;;;;;;;7.04;91.61;96453.97;5033615;28;20194;-80
2022/11/13 02:48:17;;;;;;;9.63;8.63;;;;;;;6.99;93.10;96452.72;5033209;28;20209;-80
2022/11/13 02:50:44;;;;;;;33.80;9.97;;;;;;;6.92;91.92;96439.69;5033763;28;20199;-79
2022/11/13 02:53:11;;;;;;;10.87;8.40;;;;;;;6.93;92.17;96442.06;5031693;28;20313;-80
2022/11/13 02:55:37;;;;;;;34.60;8.63;;;;;;;6.97;91.36;96441.81;5033777;28;20197;-80
2022/11/13 02:58:04;;;;;;;8.90;8.00;;;;;;;6.94;91.44;96441.13;5033010;28;20813;-80
2022/11/13 03:00:32;;;;;;;8.73;7.93;;;;;;;6.99;91.40;96434.81;5032987;28;20560;-80
2022/11/13 03:02:58;;;;;;;8.90;8.00;;;;;;;7.11;91.12;96441.44;5032692;28;20229;-80
2022/11/13 03:05:24;;;;;;;9.27;7.80;;;;;;;7.10;90.49;96438.06;5032885;28;20218;-79
2022/11/13 03:07:51;;;;;;;14.90;9.03;;;;;;;6.91;90.99;96436.31;5032561;28;20201;-80
2022/11/13 03:10:18;;;;;;;9.03;8.10;;;;;;;6.97;90.70;96427.25;5033062;28;20205;-81
2022/11/13 03:12:44;;;;;;;8.53;7.67;;;;;;;7.06;90.64;96421.34;5033075;28;20214;-79
2022/11/13 03:15:11;;;;;;;9.97;8.27;;;;;;;7.14;89.76;96418.91;5032492;28;20285;-80
2022/11/13 03:17:39;;;;;;;8.87;7.77;;;;;;;7.17;89.16;96410.97;5032074;28;20210;-80
2022/11/13 03:20:06;;;;;;;8.80;7.87;;;;;;;7.16;89.18;96409.34;5032222;28;20194;-80
2022/11/13 03:22:33;;;;;;;12.53;8.43;;;;;;;7.09;88.55;96412.59;5032537;28;20218;-79
2022/11/13 03:24:59;;;;;;;8.77;7.87;;;;;;;7.19;88.51;96414.19;5032880;28;20244;-81
2022/11/13 03:27:26;;;;;;;8.80;7.90;;;;;;;7.04;88.39;96413.00;5029592;28;20207;-79
2022/11/13 03:29:52;;;;;;;9.23;7.90;;;;;;;6.90;89.54;96408.28;5029980;28;20672;-82
2022/11/13 03:32:19;;;;;;;9.60;7.60;;;;;;;6.94;89.56;96407.03;5033028;28;20210;-79
2022/11/13 03:34:46;;;;;;;8.70;7.80;;;;;;;6.99;89.40;96410.03;5033125;28;20186;-82
2022/11/13 03:37:16;;;;;;;21.23;7.87;;;;;;;6.82;89.29;96403.81;5032468;28;20214;-79
2022/11/13 03:39:42;;;;;;;8.70;7.80;;;;;;;6.64;90.62;96402.03;5032144;28;20202;-81
2022/11/13 03:42:09;;;;;;;8.43;7.33;;;;;;;6.61;90.75;96402.28;5031818;28;20222;-81
2022/11/13 03:44:35;;;;;;;8.20;7.40;;;;;;;6.67;90.71;96387.22;5032437;28;20218;-80
2022/11/13 03:47:02;;;;;;;8.13;7.30;;;;;;;6.74;90.30;96384.94;5032198;28;20194;-80
2022/11/13 03:49:28;;;;;;;7.63;6.83;;;;;;;6.86;89.61;96373.63;5032041;28;20194;-81
2022/11/13 03:51:56;;;;;;;7.30;6.60;;;;;;;6.83;89.33;96377.28;5031524;28;20225;-80
2022/11/13 03:54:22;;;;;;;7.33;6.63;;;;;;;6.88;88.80;96369.19;5030790;28;20831;-81
2022/11/13 03:56:49;;;;;;;6.90;6.30;;;;;;;6.93;87.76;96372.16;5031740;28;20201;-80
2022/11/13 03:59:15;;;;;;;7.40;6.70;;;;;;;6.99;88.12;96363.94;5031583;28;20550;-79
2022/11/13 04:01:42;;;;;;;7.27;6.57;;;;;;;7.06;87.14;96362.47;5031738;28;20202;-81
2022/11/13 04:04:08;;;;;;;7.17;6.47;;;;;;;7.11;87.00;96365.44;5031288;28;20241;-80
2022/11/13 04:06:35;;;;;;;7.00;6.40;;;;;;;7.10;86.93;96368.13;5032062;28;20214;-81
2022/11/13 04:09:02;;;;;;;7.20;6.50;;;;;;;7.13;86.40;96365.28;5031911;28;20198;-81
2022/11/13 04:11:29;;;;;;;7.00;6.30;;;;;;;7.13;85.63;96366.06;5025893;28;20201;-81
2022/11/13 04:13:55;;;;;;;6.70;6.10;;;;;;;7.12;85.59;96363.69;5032134;28;20194;-79
2022/11/13 04:16:22;;;;;;;6.67;6.07;;;;;;;7.14;85.81;96354.88;5032316;28;20190;-81
2022/11/13 04:18:48;;;;;;;6.57;5.97;;;;;;;7.14;84.87;96352.34;5031649;28;20564;-81
2022/11/13 04:21:15;;;;;;;6.13;5.57;;;;;;;7.11;83.88;96357.75;5030957;28;20194;-81
2022/11/13 04:23:41;;;;;;;6.60;6.00;;;;;;;6.86;84.36;96353.16;5026302;28;20222;-80
2022/11/13 04:26:09;;;;;;;6.57;5.70;;;;;;;6.82;85.06;96352.63;5017132;28;20230;-81
2022/11/13 04:28:35;;;;;;;6.07;5.47;;;;;;;6.89;84.85;96352.91;5031272;28;20191;-79
2022/11/13 04:31:03;;;;;;;6.17;5.67;;;;;;;6.82;84.90;96362.84;5031033;28;20190;-82
2022/11/13 04:33:29;;;;;;;6.93;5.60;;;;;;;6.75;85.00;96359.19;5024952;28;20738;-81
2022/11/13 04:35:56;;;;;;;5.70;5.20;;;;;;;6.83;84.98;96345.75;5031209;28;20658;-81
2022/11/13 04:38:22;;;;;;;6.40;5.80;;;;;;;6.82;84.11;96351.81;5029743;28;20198;-81
2022/11/13 04:40:49;;;;;;;6.17;5.60;;;;;;;6.73;84.25;96352.63;5031494;28;20206;-81
2022/11/13 04:43:16;;;;;;;9.97;5.80;;;;;;;6.55;85.21;96350.69;5030225;28;20260;-80
2022/11/13 04:45:42;;;;;;;6.73;6.13;;;;;;;6.35;86.92;96343.16;5031120;28;20434;-81
2022/11/13 04:48:09;;;;;;;6.00;5.40;;;;;;;6.24;85.63;96334.63;5030375;28;20194;-81
2022/11/13 04:50:35;;;;;;;5.33;4.93;;;;;;;5.98;85.90;96335.22;5030933;28;20205;-80
2022/11/13 04:53:02;;;;;;;5.83;5.23;;;;;;;5.62;87.69;96333.97;5028928;28;20233;-81
2022/11/13 04:55:28;;;;;;;6.00;5.40;;;;;;;5.59;87.69;96332.47;5031264;28;20565;-81
2022/11/13 04:57:55;;;;;;;5.50;5.00;;;;;;;5.73;87.43;96327.06;5031209;28;20300;-80
2022/11/13 05:00:23;;;;;;;5.17;4.67;;;;;;;5.64;87.51;96332.91;5030621;28;20266;-81
2022/11/13 05:02:49;;;;;;;5.27;4.77;;;;;;;5.69;87.35;96325.69;5030846;28;20214;-80
2022/11/13 05:05:16;;;;;;;5.63;5.13;;;;;;;5.61;87.57;96324.69;5030187;28;20222;-80
2022/11/13 05:07:42;;;;;;;5.70;5.20;;;;;;;5.40;88.48;96317.88;5030565;28;20422;-82
2022/11/13 05:10:09;;;;;;;5.17;4.73;;;;;;;5.47;88.73;96318.19;5030461;28;20201;-81
2022/11/13 05:12:36;;;;;;;5.23;4.80;;;;;;;5.37;89.28;96319.88;5030733;28;20221;-81
2022/11/13 05:15:03;;;;;;;5.90;5.40;;;;;;;5.30;89.79;96327.22;5029918;28;20190;-81
2022/11/13 05:17:30;;;;;;;6.03;5.43;;;;;;;5.24;90.62;96329.47;5030459;28;20205;-80
2022/11/13 05:19:57;;;;;;;5.83;5.33;;;;;;;5.24;90.34;96322.63;5023598;28;20667;-81
2022/11/13 05:22:23;;;;;;;6.07;5.50;;;;;;;5.15;90.96;96319.09;5028543;28;20307;-80
2022/11/13 05:24:50;;;;;;;5.50;5.03;;;;;;;5.08;92.16;96320.50;5030653;28;20209;-80
2022/11/13 05:27:16;;;;;;;5.70;5.20;;;;;;;5.22;91.34;96312.53;5029682;28;20191;-81
2022/11/13 05:29:43;;;;;;;6.30;5.70;;;;;;;5.38;91.20;96301.88;5029859;28;20209;-80
2022/11/13 05:32:09;;;;;;;5.90;5.30;;;;;;;5.64;89.80;96306.56;5029498;28;20214;-82
2022/11/13 05:34:37;;;;;;;5.40;4.97;;;;;;;5.60;88.71;96310.28;5030449;28;20194;-82
2022/11/13 05:37:03;;;;;;;5.77;5.27;;;;;;;5.67;88.70;96302.00;5030074;28;20221;-80
2022/11/13 05:39:30;;;;;;;7.60;5.10;;;;;;;5.46;89.09;96296.94;5030223;28;20195;-81
2022/11/13 05:41:56;;;;;;;5.83;5.30;;;;;;;5.38;90.17;96286.56;5029956;28;20841;-81
2022/11/13 05:44:23;;;;;;;6.33;5.73;;;;;;;5.38;90.37;96283.22;5029704;28;20590;-81
2022/11/13 05:46:49;;;;;;;5.70;5.20;;;;;;;5.55;89.94;96272.38;5030149;28;20191;-81
2022/11/13 05:49:16;;;;;;;6.07;5.47;;;;;;;5.67;89.10;96271.34;5029515;28;20206;-81
2022/11/13 05:51:43;;;;;;;5.73;5.23;;;;;;;5.67;88.80;96275.66;5028855;28;20665;-81
2022/11/13 05:54:10;;;;;;;5.43;4.93;;;;;;;5.59;89.21;96272.91;5027662;28;20210;-80
2022/11/13 05:56:37;;;;;;;5.60;5.10;;;;;;;5.71;89.05;96275.28;5029727;28;20198;-81
2022/11/13 05:59:04;;;;;;;5.73;5.23;;;;;;;5.80;88.13;96277.03;5028998;28;20671;-80
2022/11/13 06:01:33;;;;;;;4.97;4.57;;;;;;;5.90;87.17;96282.22;5029512;28;20569;-82
2022/11/13 06:04:00;;;;;;;5.23;4.80;;;;;;;6.06;86.51;96276.59;5029413;28;20202;-82
2022/11/13 06:06:28;;;;;;;5.60;5.10;;;;;;;6.19;86.09;96280.53;5028553;28;20214;-81
2022/11/13 06:08:57;;;;;;;5.10;4.70;;;;;;;6.28;84.88;96263.59;5029615;28;20199;-82
2022/11/13 06:11:26;;;;;;;4.47;4.03;;;;;;;6.21;84.66;96263.31;5029207;28;20195;-81
2022/11/13 06:13:53;;;;;;;5.70;5.10;;;;;;;6.33;96.84;96270.88;5029909;28;20214;-81
2022/11/13 06:16:22;;;;;;;9.67;5.20;;;;;;;7.09;100.00;96267.47;5029032;28;20205;-82
2022/11/13 06:18:50;;;;;;;4.57;3.93;;;;;;;7.74;100.00;96250.34;5026443;28;20579;-82
2022/11/13 06:21:19;;;;;;;4.40;4.00;;;;;;;8.13;86.74;96252.72;5021420;28;20190;-81
2022/11/13 06:23:45;;;;;;;3.87;3.47;;;;;;;7.77;78.72;96246.72;5029874;28;20230;-81
2022/11/13 06:26:15;;;;;;;3.93;3.30;;;;;;;7.53;78.31;96242.91;5029256;28;20222;-81
2022/11/13 06:28:42;;;;;;;3.93;3.53;;;;;;;7.08;79.37;96236.88;5024430;28;20194;-81
2022/11/13 06:31:11;;;;;;;4.40;4.07;;;;;;;6.88;80.59;96243.78;5029315;28;20585;-80
2022/11/13 06:33:39;;;;;;;4.63;4.23;;;;;;;6.57;80.04;96245.69;5023480;28;20217;-81
2022/11/13 06:36:08;;;;;;;4.70;4.30;;;;;;;6.40;82.17;96241.25;5029148;28;20201;-81
2022/11/13 06:38:36;;;;;;;4.30;3.90;;;;;;;6.39;82.55;96242.19;5029365;28;20190;-81
2022/11/13 06:41:04;;;;;;;4.27;3.97;;;;;;;6.38;82.27;96238.81;5029647;28;20620;-81
2022/11/13 06:43:32;;;;;;;4.20;3.80;;;;;;;6.45;82.51;96226.31;5028294;28;20221;-82
2022/11/13 06:45:59;;;;;;;4.30;3.90;;;;;;;6.45;81.79;96216.06;5029289;28;20221;-81
2022/11/13 06:48:25;;;;;;;4.50;4.10;;;;;;;6.53;82.04;96217.03;5028875;28;20585;-82
2022/11/13 06:50:52;;;;;;;4.50;4.10;;;;;;;6.52;81.95;96209.47;5029118;28;20665;-81
2022/11/13 06:53:18;;;;;;;4.90;4.50;;;;;;;6.22;81.54;96207.84;5027710;28;20237;-82
2022/11/13 06:55:46;;;;;;;4.80;4.40;;;;;;;6.00;83.55;96203.81;5029484;28;20190;-82
2022/11/13 06:58:13;;;;;;;4.80;4.40;;;;;;;6.03;83.65;96211.22;5028488;28;20880;-82
2022/11/13 07:00:41;;;;;;;5.23;4.73;;;;;;;5.90;83.45;96197.88;5022739;28;20194;-81
2022/11/13 07:03:15;;;;;;;4.93;4.43;;;;;;;6.03;83.23;96195.06;5028616;28;20226;-81
2022/11/13 07:05:42;;;;;;;5.53;5.03;;;;;;;6.12;83.21;96187.41;5020867;28;20209;-82
2022/11/13 07:08:08;;;;;;;4.73;4.33;;;;;;;6.23;82.90;96173.69;5020985;28;20230;-82
2022/11/13 07:10:35;;;;;;;4.93;4.53;;;;;;;6.26;82.65;96180.28;5025659;28;20190;-82
2022/11/13 07:13:01;;;;;;;5.40;4.90;;;;;;;6.29;82.75;96183.38;5026967;28;20233;-83
2022/11/13 07:15:28;;;;;;;5.30;4.80;;;;;;;6.36;82.48;96187.00;5020423;28;20202;-81
2022/11/13 07:17:55;;;;;;;6.47;5.20;;;;;;;6.27;82.44;96187.00;5030221;28;20194;-80
2022/11/13 07:20:24;;;;;;;5.37;4.87;;;;;;;6.19;83.88;96191.03;5033056;28;20202;-81
2022/11/13 07:22:55;;;;;;;6.07;5.47;;;;;;;6.24;83.95;96183.78;5026786;28;20581;-82
2022/11/13 07:25:21;;;;;;;6.47;5.30;;;;;;;6.21;84.06;96173.81;5024194;28;20246;-82
2022/11/13 07:27:48;;;;;;;5.37;4.87;;;;;;;6.30;84.17;96173.94;5025382;28;20211;-82
2022/11/13 07:30:14;;;;;;;6.40;5.80;;;;;;;6.11;84.63;96173.00;5024508;28;20195;-82
2022/11/13 07:32:44;;;;;;;6.30;5.70;;;;;;;6.18;84.68;96168.97;5026927;28;20218;-82
2022/11/13 07:35:12;;;;;;;6.00;5.40;;;;;;;6.20;85.33;96176.50;5024937;28;20199;-82
2022/11/13 07:37:38;;;;;;;6.40;5.80;;;;;;;6.14;85.02;96175.31;5026491;28;20205;-82
2022/11/13 07:40:06;;;;;;;7.00;6.40;;;;;;;6.08;85.96;96183.50;5025538;28;20195;-82
2022/11/13 07:42:32;;;;;;;6.90;6.20;;;;;;;5.94;86.40;96195.88;5031427;28;20214;-81
2022/11/13 07:44:59;;;;;;;6.40;5.80;;;;;;;6.05;85.88;96209.34;5032681;28;20214;-82
2022/11/13 07:47:26;;;;;;;7.80;6.47;;;;;;;6.17;85.49;96204.88;5032039;28;20198;-80
2022/11/13 07:49:52;;;;;;;7.07;6.37;;;;;;;6.29;85.28;96218.38;5032815;28;20582;-82
2022/11/13 07:52:20;;;;;;;7.10;6.40;;;;;;;5.97;85.38;96227.06;5032137;28;20253;-81
2022/11/13 07:54:47;;;;;;;7.40;6.63;;;;;;;5.79;86.62;96239.63;5031696;28;20226;-82
2022/11/13 07:57:13;;;;;;;6.90;6.20;;;;;;;5.84;87.53;96234.16;5032173;28;20194;-80
2022/11/13 07:59:40;;;;;;;7.43;6.70;;;;;;;6.05;87.34;96224.66;5031737;28;20195;-82
2022/11/13 08:02:06;;;;;;;7.60;6.80;;;;;;;6.16;100.00;96231.38;5033119;28;20214;-81
2022/11/13 08:04:33;;;;;;;7.60;6.90;;;;;;;6.38;88.60;96235.44;5031368;28;20198;-80
2022/11/13 08:07:00;;;;;;;7.47;6.70;;;;;;;6.15;87.08;96230.63;5033221;28;20214;-81
2022/11/13 08:09:28;;;;;;;8.00;7.20;;;;;;;5.85;87.97;96248.53;5028856;28;20202;-82
2022/11/13 08:11:54;;;;;;;7.70;6.90;;;;;;;5.84;89.15;96227.28;5027790;28;20218;-81
2022/11/13 08:14:21;;;;;;;8.20;7.10;;;;;;;5.76;90.44;96223.78;5032400;28;20229;-81
2022/11/13 08:16:47;;;;;;;8.17;7.40;;;;;;;5.89;88.01;96214.97;5032622;28;20221;-81
2022/11/13 08:19:14;;;;;;;7.93;7.13;;;;;;;5.99;87.00;96209.03;5032310;28;20198;-80
2022/11/13 08:21:40;;;;;;;10.30;8.30;;;;;;;6.00;87.93;96213.22;5032317;28;20198;-82
2022/11/13 08:24:07;;;;;;;8.80;7.90;;;;;;;6.11;86.53;96205.44;5031999;28;20205;-82
2022/11/13 08:26:37;;;;;;;15.10;13.10;;;;;;;5.97;88.25;96196.41;5032106;28;20226;-81
2022/11/13 08:29:03;;;;;;;11.13;9.93;;;;;;;6.02;87.06;96184.03;5031344;28;20206;-80
2022/11/13 08:31:30;;;;;;;11.83;10.57;;;;;;;6.14;86.32;96180.41;5033133;28;20693;-82
2022/11/13 08:33:57;;;;;;;13.50;12.17;;;;;;;6.29;86.20;96185.94;5031328;28;20692;-82
2022/11/13 08:36:24;;;;;;;9.60;8.60;;;;;;;6.31;85.39;96180.69;5031013;28;20213;-82
2022/11/13 08:38:50;;;;;;;10.33;8.03;;;;;;;6.33;85.52;96179.59;5032459;28;20288;-81
2022/11/13 08:41:17;;;;;;;11.07;8.97;;;;;;;6.17;86.22;96182.69;5032048;28;20202;-82
2022/11/13 08:43:44;;;;;;;10.13;8.97;;;;;;;6.16;86.90;96183.63;5012991;28;20219;-81
2022/11/13 08:46:11;;;;;;;10.97;9.10;;;;;;;6.23;86.72;96176.22;5012344;28;20771;-82
2022/11/13 08:48:38;;;;;;;11.83;9.33;;;;;;;6.21;86.69;96193.47;5012203;28;20207;-82
2022/11/13 08:51:22;;;;;;;11.67;10.17;;;;;;;6.27;86.83;96184.44;5029074;28;20202;-81
2022/11/13 08:53:49;;;;;;;15.80;11.57;;;;;;;6.14;87.33;96190.66;5029928;28;21012;-81
2022/11/13 08:56:15;;;;;;;12.70;11.03;;;;;;;6.45;86.25;96178.50;5031390;28;20221;-81
2022/11/13 08:58:42;;;;;;;15.20;12.00;;;;;;;6.54;85.23;96177.69;5031752;28;20198;-82
2022/11/13 09:01:10;;;;;;;12.70;11.40;;;;;;;6.49;85.02;96164.50;5024462;28;20206;-81
2022/11/13 09:03:36;;;;;;;14.77;11.40;;;;;;;6.35;88.01;96170.03;5031028;28;20218;-79
2022/11/13 09:06:05;;;;;;;12.90;9.30;;;;;;;6.70;100.00;96172.03;5030398;28;20214;-81
2022/11/13 09:08:31;;;;;;;15.83;12.20;;;;;;;6.79;86.83;96170.38;5027765;28;20264;-84
2022/11/13 09:11:02;;;;;;;15.73;12.57;;;;;;;6.74;86.34;96175.09;5030927;28;20206;-82
2022/11/13 09:13:31;;;;;;;17.27;13.00;;;;;;;6.69;85.63;96167.03;5030956;28;20210;-81
2022/11/13 09:15:58;;;;;;;16.70;12.97;;;;;;;6.51;86.66;96164.38;5030539;28;20681;-83
2022/11/13 09:18:26;;;;;;;19.23;13.57;;;;;;;6.59;87.82;96172.97;5030450;28;20202;-81
2022/11/13 09:20:53;;;;;;;14.77;12.50;;;;;;;6.63;87.70;96182.94;5030560;28;20206;-81
2022/11/13 09:23:20;;;;;;;16.00;13.67;;;;;;;6.91;85.81;96170.09;5030872;28;20222;-82
2022/11/13 09:25:47;;;;;;;15.70;12.53;;;;;;;6.96;84.44;96156.03;5030821;28;20218;-83
2022/11/13 09:28:13;;;;;;;16.27;13.07;;;;;;;7.14;84.88;96165.41;5024572;28;20198;-81
2022/11/13 09:30:42;;;;;;;17.63;13.50;;;;;;;7.59;83.16;96162.09;5031384;28;20199;-83
2022/11/13 09:33:14;;;;;;;18.07;13.67;;;;;;;7.94;80.21;96161.31;5019898;28;20221;-81
2022/11/13 09:35:42;;;;;;;17.13;13.90;;;;;;;8.41;80.83;96146.53;5026622;28;20198;-82
2022/11/13 09:38:11;;;;;;;16.50;12.90;;;;;;;8.84;79.10;96138.00;5026950;28;20205;-82
2022/11/13 09:40:43;;;;;;;16.13;13.43;;;;;;;8.95;75.79;96131.78;5027942;28;20194;-81
2022/11/13 09:43:23;;;;;;;15.10;12.57;;;;;;;9.17;75.22;96140.72;5030073;28;20218;-81
2022/11/13 09:45:53;;;;;;;13.90;12.43;;;;;;;9.06;73.71;96136.66;5029956;28;20221;-81
2022/11/13 09:48:27;;;;;;;13.13;11.70;;;;;;;9.10;73.62;96129.44;5029698;28;20205;-82
2022/11/13 09:50:57;;;;;;;13.30;11.77;;;;;;;8.93;72.74;96123.44;5029643;28;20201;-82
2022/11/13 09:53:24;;;;;;;13.87;11.53;;;;;;;8.66;73.44;96120.06;5029826;28;20222;-82
2022/11/13 09:55:59;;;;;;;14.73;12.33;;;;;;;8.40;74.47;96126.16;5029614;28;20229;-81
2022/11/13 09:58:34;;;;;;;13.13;11.37;;;;;;;8.24;74.91;96127.63;5029554;28;20217;-82
2022/11/13 10:01:01;;;;;;;13.07;11.67;;;;;;;8.27;75.60;96122.16;5029935;28;20551;-81
2022/11/13 10:03:35;;;;;;;17.97;13.87;;;;;;;8.42;77.98;96108.84;5025883;28;20237;-83
2022/11/13 10:06:13;;;;;;;18.93;15.77;;;;;;;8.61;74.08;96112.03;5027315;28;20205;-82
2022/11/13 10:08:51;;;;;;;13.40;11.67;;;;;;;8.49;73.73;96113.22;5027402;28;20615;-80
2022/11/13 10:11:26;;;;;;;12.53;10.77;;;;;;;8.31;74.38;96120.94;5026217;28;20221;-82
2022/11/13 10:13:57;;;;;;;11.87;10.43;;;;;;;8.25;74.45;96131.00;5031001;28;20217;-82
2022/11/13 10:16:32;;;;;;;11.87;10.63;;;;;;;8.40;75.14;96123.59;5029137;28;20186;-82
2022/11/13 10:19:08;;;;;;;11.83;10.47;;;;;;;8.51;74.88;96128.47;5024034;28;20190;-82
2022/11/13 10:21:42;;;;;;;12.37;11.07;;;;;;;8.45;74.43;96119.63;5030813;28;20202;-81
2022/11/13 10:24:16;;;;;;;12.10;10.80;;;;;;;8.69;74.47;96097.63;5030906;28;20197;-83
2022/11/13 10:26:42;;;;;;;11.77;10.57;;;;;;;8.91;74.39;96100.47;5030025;28;20218;-82
2022/11/13 10:29:11;;;;;;;13.23;10.67;;;;;;;9.20;71.59;96097.56;5029559;28;20198;-81
2022/11/13 10:31:42;;;;;;;12.00;10.70;;;;;;;9.34;70.62;96086.69;5029597;28;20275;-82
2022/11/13 10:34:10;;;;;;;11.67;10.47;;;;;;;9.21;70.43;96080.38;5029874;28;20201;-82
2022/11/13 10:36:48;;;;;;;12.60;9.97;;;;;;;9.40;73.05;96081.88;5029794;28;20205;-83
2022/11/13 10:39:15;;;;;;;40.13;32.67;;;;;;;9.55;73.49;96075.16;5025514;28;20688;-81
2022/11/13 10:41:46;;;;;;;19.53;16.10;;;;;;;9.90;76.70;96077.47;5030947;28;20221;-86
2022/11/13 10:44:32;;;;;;;14.03;10.83;;;;;;;10.37;78.84;96085.38;5034586;28;20199;-85
2022/11/13 10:47:13;;;;;;;10.80;9.40;;;;;;;10.77;68.09;96051.97;5024694;28;20222;-83
2022/11/13 10:49:40;;;;;;;9.63;8.73;;;;;;;10.31;66.17;96056.88;5030048;28;20206;-82
2022/11/13 10:52:18;;;;;;;11.27;10.07;;;;;;;10.19;67.53;96050.47;5034383;28;20221;-83
2022/11/13 10:54:44;;;;;;;10.43;9.33;;;;;;;10.20;68.27;96044.38;5035384;28;20202;-83
2022/11/13 10:57:28;;;;;;;11.33;9.53;;;;;;;10.42;66.58;96028.22;5034520;28;20198;-83
2022/11/13 10:59:55;;;;;;;10.77;9.67;;;;;;;10.35;66.09;96033.25;5035011;28;20194;-83
2022/11/13 11:02:23;;;;;;;10.23;9.23;;;;;;;10.17;66.01;96027.44;5034513;28;20252;-82
2022/11/13 11:05:00;;;;;;;9.83;8.93;;;;;;;10.17;67.67;96021.50;5034138;28;20194;-82
2022/11/13 11:07:28;;;;;;;10.03;9.03;;;;;;;10.42;66.51;96019.69;5033448;28;20222;-83
2022/11/13 11:09:55;;;;;;;9.83;8.83;;;;;;;10.41;65.94;96020.66;5033758;28;20190;-83
2022/11/13 11:12:24;;;;;;;10.23;9.17;;;;;;;10.23;65.91;96013.13;5034156;28;20218;-83
2022/11/13 11:15:02;;;;;;;9.80;8.80;;;;;;;10.55;66.80;96012.28;5032625;28;20205;-83
2022/11/13 11:17:33;;;;;;;9.53;8.47;;;;;;;10.67;65.68;96008.38;5033053;28;20198;-83
2022/11/13 11:20:04;;;;;;;10.23;9.23;;;;;;;10.62;65.92;96001.13;5027641;28;20538;-83
2022/11/13 11:22:36;;;;;;;11.67;10.47;;;;;;;10.51;65.96;96001.50;5033917;28;20225;-83
2022/11/13 11:25:11;;;;;;;14.33;12.80;;;;;;;10.56;66.14;95996.66;5028543;28;20193;-84
2022/11/13 11:27:44;;;;;;;11.70;10.50;;;;;;;10.72;66.42;95995.81;5029503;28;20213;-83
2022/11/13 11:30:25;;;;;;;10.60;9.50;;;;;;;10.70;65.80;95995.97;5033364;28;20586;-82
2022/11/13 11:33:03;;;;;;;10.57;9.50;;;;;;;10.80;66.11;95982.06;5032347;28;20221;-82
2022/11/13 11:35:38;;;;;;;11.20;9.67;;;;;;;10.98;65.96;95977.47;5033019;28;20194;-84
2022/11/13 11:38:12;;;;;;;11.80;10.10;;;;;;;11.14;64.55;95987.72;5027134;28;20621;-83